createdAt,value
2018-09-04T00:00:52.016Z,97845.00
2018-09-04T00:03:34.094Z,97842.00
2018-09-04T00:06:14.649Z,97843.00
2018-09-04T00:08:55.538Z,97841.00
2018-09-04T00:11:36.072Z,97839.00
2018-09-04T00:14:16.058Z,97839.00
2018-09-04T00:16:54.911Z,97834.00
2018-09-04T00:19:36.099Z,97834.00
2018-09-04T00:22:18.538Z,97837.00
2018-09-04T00:24:58.689Z,97837.00
2018-09-04T00:27:38.134Z,97836.00
2018-09-04T00:30:17.878Z,97833.00
2018-09-04T00:33:00.293Z,97828.00
2018-09-04T00:35:41.174Z,97830.00
2018-09-04T00:38:28.616Z,97827.00
2018-09-04T00:41:07.992Z,97829.00
2018-09-04T00:43:47.389Z,97827.00
2018-09-04T00:46:30.992Z,97827.00
2018-09-04T00:49:11.218Z,97829.00
2018-09-04T00:51:52.531Z,97829.00
2018-09-04T00:54:30.753Z,97828.00
2018-09-04T00:57:10.778Z,97826.00
2018-09-04T00:59:51.074Z,97824.00
2018-09-04T01:02:32.991Z,97824.00
2018-09-04T01:05:13.356Z,97828.00
2018-09-04T01:07:53.613Z,97833.00
2018-09-04T01:10:35.590Z,97840.00
2018-09-04T01:13:16.131Z,97845.00
2018-09-04T01:15:56.113Z,97847.00
2018-09-04T01:18:36.816Z,97845.00
2018-09-04T01:21:16.389Z,97845.00
2018-09-04T01:23:59.653Z,97839.00
2018-09-04T01:26:40.078Z,97837.00
2018-09-04T01:29:19.456Z,97840.00
2018-09-04T01:31:59.093Z,97838.00
2018-09-04T01:34:42.452Z,97835.00
2018-09-04T01:37:22.240Z,97833.00
2018-09-04T01:40:00.253Z,97836.00
2018-09-04T01:42:41.393Z,97835.00
2018-09-04T01:45:20.034Z,97836.00
2018-09-04T01:48:03.968Z,97843.00
2018-09-04T01:50:42.637Z,97842.00
2018-09-04T01:53:24.594Z,97844.00
2018-09-04T01:56:03.875Z,97850.00
2018-09-04T01:58:45.611Z,97849.00
2018-09-04T02:01:26.169Z,97849.00
2018-09-04T02:04:06.517Z,97844.00
2018-09-04T02:06:49.234Z,97839.00
2018-09-04T02:09:30.199Z,97839.00
2018-09-04T02:12:10.531Z,97835.00
2018-09-04T02:14:50.858Z,97839.00
2018-09-04T02:17:34.754Z,97835.00
2018-09-04T02:20:15.814Z,97832.00
2018-09-04T02:23:01.651Z,97832.00
2018-09-04T02:25:42.218Z,97833.00
2018-09-04T02:28:25.915Z,97833.00
2018-09-04T02:31:11.774Z,97834.00
2018-09-04T02:33:50.560Z,97837.00
2018-09-04T02:36:30.093Z,97835.00
2018-09-04T02:39:13.933Z,97837.00
2018-09-04T02:41:54.851Z,97829.00
2018-09-04T02:44:36.730Z,97834.00
2018-09-04T02:47:15.057Z,97832.00
2018-09-04T02:49:56.554Z,97828.00
2018-09-04T04:07:16.901Z,97836.00
2018-09-04T04:09:57.881Z,97838.00
2018-09-04T04:12:39.066Z,97841.00
2018-09-04T04:15:19.741Z,97831.00
2018-09-04T04:18:03.104Z,97838.00
2018-09-04T04:20:49.396Z,97837.00
2018-09-04T04:23:32.744Z,97839.00
2018-09-04T04:26:14.021Z,97837.00
2018-09-04T04:28:58.283Z,97836.00
2018-09-04T04:31:41.463Z,97825.00
2018-09-04T04:34:24.416Z,97826.00
2018-09-04T04:37:06.901Z,97828.00
2018-09-04T04:39:48.930Z,97833.00
2018-09-04T04:42:33.480Z,97834.00
2018-09-04T04:45:12.147Z,97834.00
2018-09-04T04:47:54.645Z,97835.00
2018-09-04T04:50:38.798Z,97835.00
2018-09-04T04:53:21.616Z,97837.00
2018-09-04T04:56:05.461Z,97839.00
2018-09-04T04:58:44.937Z,97847.00
2018-09-04T05:01:27.344Z,97854.00
2018-09-04T05:04:13.393Z,97848.00
2018-09-04T05:06:58.600Z,97859.00
2018-09-04T05:09:39.581Z,97856.00
2018-09-04T05:12:21.684Z,97862.00
2018-09-04T05:15:04.876Z,97856.00
2018-09-04T05:17:54.544Z,97860.00
2018-09-04T05:20:37.490Z,97858.00
2018-09-04T05:23:18.859Z,97855.00
2018-09-04T05:25:59.563Z,97857.00
2018-09-04T05:28:43.060Z,97858.00
2018-09-04T05:31:30.257Z,97860.00
2018-09-04T05:34:11.359Z,97868.00
2018-09-04T05:36:53.057Z,97869.00
2018-09-04T05:39:42.765Z,97875.00
2018-09-04T05:42:34.283Z,97869.00
2018-09-04T05:45:48.485Z,97873.00
2018-09-04T05:48:30.002Z,97868.00
2018-09-04T05:51:08.317Z,97875.00
2018-09-04T05:53:47.358Z,97874.00
2018-09-04T05:56:45.078Z,97873.00
2018-09-04T05:59:31.694Z,97872.00
2018-09-04T06:02:12.836Z,97876.00
2018-09-04T06:05:01.399Z,97869.00
2018-09-04T06:07:46.860Z,97868.00
2018-09-04T06:10:31.457Z,97874.00
2018-09-04T06:13:10.575Z,97875.00
2018-09-04T06:15:56.097Z,97881.00
2018-09-04T06:18:42.782Z,97883.00
2018-09-04T06:21:27.620Z,97884.00
2018-09-04T06:24:07.965Z,97879.00
2018-09-04T06:26:53.461Z,97875.00
2018-09-04T06:29:37.852Z,97877.00
2018-09-04T06:32:16.618Z,97877.00
2018-09-04T06:34:58.982Z,97873.00
2018-09-04T06:37:44.504Z,97872.00
2018-09-04T06:40:28.461Z,97863.00
2018-09-04T06:43:11.926Z,97868.00
2018-09-04T06:45:57.201Z,97874.00
2018-09-04T06:48:45.258Z,97873.00
2018-09-04T06:51:30.306Z,97872.00
2018-09-04T06:54:16.540Z,97878.00
2018-09-04T06:56:59.361Z,97884.00
2018-09-04T06:59:40.198Z,97881.00
2018-09-04T07:02:27.240Z,97880.00
2018-09-04T07:05:10.979Z,97885.00
2018-09-04T07:07:52.803Z,97884.00
2018-09-04T07:10:34.199Z,97896.00
2018-09-04T07:13:17.139Z,97903.00
2018-09-04T07:15:59.860Z,97905.00
2018-09-04T07:18:40.762Z,97907.00
2018-09-04T07:21:27.242Z,97909.00
2018-09-04T07:24:13.991Z,97909.00
2018-09-04T07:26:57.599Z,97909.00
2018-09-04T07:29:51.140Z,97912.00
2018-09-04T07:32:36.425Z,97915.00
2018-09-04T07:35:18.523Z,97925.00
2018-09-04T07:38:00.941Z,97924.00
2018-09-04T07:40:41.331Z,97925.00
2018-09-04T07:43:21.303Z,97921.00
2018-09-04T07:46:07.463Z,97923.00
2018-09-04T07:48:46.422Z,97921.00
2018-09-04T07:51:27.176Z,97919.00
2018-09-04T07:54:07.757Z,97922.00
2018-09-04T07:56:49.883Z,97926.00
2018-09-04T07:59:35.239Z,97924.00
2018-09-04T08:02:15.026Z,97924.00
2018-09-04T08:04:59.446Z,97924.00
2018-09-04T08:07:49.937Z,97924.00
2018-09-04T08:10:32.865Z,97923.00
2018-09-04T08:13:18.061Z,97921.00
2018-09-04T08:16:03.565Z,97913.00
2018-09-04T09:25:12.468Z,97899.00
2018-09-04T09:40:56.982Z,97897.00
2018-09-04T09:50:45.670Z,97891.00
2018-09-04T10:18:27.203Z,97873.00
2018-09-04T11:11:50.385Z,97891.00
2018-09-04T11:14:44.266Z,97885.00
2018-09-04T11:17:31.006Z,97881.00
2018-09-04T11:20:23.120Z,97884.00
2018-09-04T11:23:10.399Z,97875.00
2018-09-04T11:26:09.044Z,97870.00
2018-09-04T11:29:09.301Z,97862.00
2018-09-04T11:32:09.663Z,97859.00
2018-09-04T11:35:03.822Z,97861.00
2018-09-04T11:37:55.803Z,97853.00
2018-09-04T11:40:48.077Z,97856.00
2018-09-04T11:43:43.090Z,97858.00
2018-09-04T11:46:44.994Z,97859.00
2018-09-04T11:49:33.921Z,97857.00
2018-09-04T11:52:27.751Z,97860.00
2018-09-04T11:55:17.866Z,97863.00
2018-09-04T13:39:49.612Z,97840.00
2018-09-04T13:42:36.787Z,97838.00
2018-09-04T14:06:12.435Z,97833.00
2018-09-04T14:09:07.914Z,97826.00
2018-09-04T14:12:03.555Z,97824.00
2018-09-04T14:15:00.102Z,97829.00
2018-09-04T14:17:49.631Z,97826.00
2018-09-04T14:20:42.520Z,97823.00
2018-09-04T14:23:31.215Z,97823.00
2018-09-04T14:26:17.156Z,97823.00
2018-09-04T14:29:11.292Z,97821.00
2018-09-04T14:31:56.317Z,97825.00
2018-09-04T14:34:45.578Z,97815.00
2018-09-04T14:37:33.853Z,97811.00
2018-09-04T14:40:25.661Z,97819.00
2018-09-04T14:43:15.433Z,97822.00
2018-09-04T14:48:54.454Z,97820.00
2018-09-04T14:51:46.617Z,97818.00
2018-09-04T14:54:34.449Z,97815.00
2018-09-04T14:57:24.962Z,97810.00
2018-09-04T15:00:14.714Z,97808.00
2018-09-04T15:03:05.436Z,97810.00
2018-09-04T15:41:51.774Z,97836.00
2018-09-04T15:48:30.473Z,97838.00
2018-09-04T15:51:12.176Z,97841.00
2018-09-04T15:53:57.871Z,97838.00
2018-09-04T15:56:39.808Z,97840.00
2018-09-04T15:59:20.890Z,97837.00
2018-09-04T16:02:00.493Z,97831.00
2018-09-04T16:04:46.274Z,97836.00
2018-09-04T16:07:29.656Z,97840.00
2018-09-04T16:10:09.520Z,97841.00
2018-09-04T16:12:55.227Z,97845.00
2018-09-04T16:15:46.760Z,97841.00
2018-09-04T16:18:26.287Z,97846.00
2018-09-04T16:21:10.975Z,97844.00
2018-09-04T16:23:54.212Z,97852.00
2018-09-04T16:26:32.849Z,97848.00
2018-09-04T16:29:18.473Z,97848.00
2018-09-04T16:31:59.333Z,97847.00
2018-09-04T16:34:39.580Z,97853.00
2018-09-04T16:37:22.813Z,97858.00
2018-09-04T16:40:01.711Z,97864.00
2018-09-04T16:42:45.632Z,97867.00
2018-09-04T16:45:33.148Z,97869.00
2018-09-04T16:48:12.294Z,97866.00
2018-09-04T16:50:54.813Z,97865.00
2018-09-04T16:53:37.728Z,97868.00
2018-09-04T16:56:19.631Z,97867.00
2018-09-04T16:59:02.957Z,97870.00
2018-09-04T17:01:45.652Z,97872.00
2018-09-04T17:04:25.115Z,97872.00
2018-09-04T17:07:06.713Z,97871.00
2018-09-04T17:09:48.260Z,97869.00
2018-09-04T17:12:31.493Z,97871.00
2018-09-04T17:15:09.918Z,97868.00
2018-09-04T17:17:52.729Z,97875.00
2018-09-04T17:20:35.392Z,97873.00
2018-09-04T17:23:19.277Z,97876.00
2018-09-04T17:26:01.073Z,97875.00
2018-09-04T17:28:44.217Z,97881.00
2018-09-04T17:31:23.953Z,97882.00
2018-09-04T17:34:06.020Z,97878.00
2018-09-04T17:36:47.213Z,97879.00
2018-09-04T17:39:30.328Z,97882.00
2018-09-04T17:42:08.090Z,97884.00
2018-09-04T17:44:48.872Z,97890.00
2018-09-04T17:47:28.034Z,97895.00
2018-09-04T17:50:09.860Z,97900.00
2018-09-04T17:52:49.495Z,97904.00
2018-09-04T17:55:31.657Z,97908.00
2018-09-04T17:58:11.745Z,97914.00
2018-09-04T18:01:02.899Z,97916.00
2018-09-04T18:03:47.393Z,97921.00
2018-09-04T18:06:28.594Z,97921.00
2018-09-04T18:09:09.451Z,97920.00
2018-09-04T18:11:51.111Z,97928.00
2018-09-04T18:14:33.557Z,97929.00
2018-09-04T18:17:18.089Z,97928.00
2018-09-04T18:20:00.755Z,97932.00
2018-09-04T18:22:44.506Z,97943.00
2018-09-04T18:25:25.868Z,97940.00
2018-09-04T18:28:06.972Z,97942.00
2018-09-04T18:30:48.267Z,97944.00
2018-09-04T18:33:34.976Z,97947.00
2018-09-04T18:36:16.022Z,97953.00
2018-09-04T18:38:56.008Z,97957.00
2018-09-04T18:41:38.482Z,97962.00
2018-09-04T18:44:16.595Z,97963.00
2018-09-04T18:46:56.291Z,97964.00
2018-09-04T18:49:36.795Z,97968.00
2018-09-04T18:52:15.371Z,97974.00
2018-09-04T18:54:55.159Z,97980.00
2018-09-04T18:57:39.671Z,97979.00
2018-09-04T19:00:20.626Z,97982.00
2018-09-04T19:03:00.194Z,97983.00
2018-09-04T19:05:42.030Z,97987.00
2018-09-04T19:08:23.775Z,97988.00
2018-09-04T19:11:04.549Z,97987.00
2018-09-04T19:13:44.134Z,97991.00
2018-09-04T19:16:31.333Z,97987.00
2018-09-04T19:19:12.470Z,97989.00
2018-09-04T19:21:52.878Z,97991.00
2018-09-04T19:24:35.511Z,97991.00
2018-09-04T19:27:16.891Z,97994.00
2018-09-04T19:29:58.839Z,97991.00
2018-09-04T19:32:37.170Z,97989.00
2018-09-04T19:35:17.635Z,97987.00
2018-09-04T19:37:57.679Z,97992.00
2018-09-04T19:40:40.131Z,97995.00
2018-09-04T19:43:19.344Z,97994.00
2018-09-04T19:45:59.651Z,97997.00
2018-09-04T19:48:40.069Z,97996.00
2018-09-04T19:51:20.711Z,98001.00
2018-09-04T20:14:45.153Z,98013.00
2018-09-04T20:17:26.007Z,98015.00
2018-09-04T20:20:05.610Z,98013.00
2018-09-04T20:22:46.610Z,98015.00
2018-09-04T20:25:29.208Z,98021.00
2018-09-04T20:28:09.114Z,98024.00
2018-09-04T20:30:49.886Z,98027.00
2018-09-04T20:33:29.409Z,98026.00
2018-09-04T20:36:08.870Z,98023.00
2018-09-04T20:38:48.072Z,98019.00
2018-09-04T20:41:30.246Z,98025.00
2018-09-04T20:44:09.312Z,98020.00
2018-09-04T20:46:48.129Z,98027.00
2018-09-04T20:49:29.024Z,98022.00
2018-09-04T20:52:10.127Z,98018.00
2018-09-04T20:54:49.408Z,98016.00
2018-09-04T20:57:32.312Z,98022.00
2018-09-04T21:00:25.127Z,98018.00
2018-09-04T21:03:16.066Z,98016.00
2018-09-04T21:06:06.972Z,98020.00
2018-09-04T21:09:00.445Z,98030.00
2018-09-04T21:11:41.591Z,98036.00
2018-09-04T21:14:21.208Z,98033.00
2018-09-04T21:17:00.496Z,98035.00
2018-09-04T21:19:40.365Z,98035.00
2018-09-04T21:22:20.950Z,98040.00
2018-09-04T21:25:00.608Z,98042.00
2018-09-04T21:27:40.162Z,98042.00
2018-09-04T21:30:19.093Z,98042.00
2018-09-04T21:32:58.836Z,98042.00
2018-09-04T21:35:38.540Z,98035.00
2018-09-04T21:38:18.867Z,98041.00
2018-09-04T21:40:59.325Z,98041.00
2018-09-04T21:43:39.768Z,98039.00
2018-09-04T21:46:20.331Z,98042.00
2018-09-04T21:49:00.046Z,98041.00
2018-09-04T21:51:41.230Z,98037.00
2018-09-04T21:54:21.584Z,98041.00
2018-09-04T21:57:01.268Z,98036.00
2018-09-04T21:59:40.187Z,98038.00
2018-09-04T22:02:21.769Z,98035.00
2018-09-04T22:05:01.093Z,98036.00
2018-09-04T22:07:41.905Z,98041.00
2018-09-04T22:10:23.189Z,98043.00
2018-09-04T22:13:03.784Z,98042.00
2018-09-04T22:15:43.847Z,98045.00
2018-09-04T22:18:23.346Z,98051.00
2018-09-04T22:21:03.145Z,98050.00
2018-09-04T22:23:43.367Z,98047.00
2018-09-04T22:26:26.554Z,98049.00
2018-09-04T22:29:06.609Z,98054.00
2018-09-04T22:31:47.593Z,98060.00
2018-09-04T22:34:30.190Z,98061.00
2018-09-04T22:37:11.424Z,98060.00
2018-09-04T22:39:50.968Z,98063.00
2018-09-04T22:42:35.308Z,98059.00
2018-09-04T22:45:15.128Z,98058.00
2018-09-04T22:47:54.406Z,98058.00
2018-09-04T22:50:36.512Z,98060.00
2018-09-04T22:53:16.123Z,98065.00
2018-09-04T22:55:56.034Z,98062.00
2018-09-04T22:58:36.763Z,98061.00
2018-09-04T23:01:17.803Z,98062.00
2018-09-04T23:03:56.267Z,98060.00
2018-09-04T23:06:37.692Z,98061.00
2018-09-04T23:09:18.950Z,98056.00
2018-09-04T23:11:56.675Z,98059.00
2018-09-04T23:14:37.326Z,98061.00
2018-09-04T23:17:18.617Z,98064.00
2018-09-04T23:19:57.928Z,98065.00
2018-09-04T23:22:38.031Z,98070.00
2018-09-04T23:25:16.848Z,98070.00
2018-09-04T23:27:56.249Z,98069.00
2018-09-04T23:30:35.571Z,98064.00
2018-09-04T23:33:14.307Z,98066.00
2018-09-04T23:35:53.350Z,98072.00
2018-09-04T23:38:33.264Z,98070.00
2018-09-04T23:41:12.209Z,98074.00
2018-09-04T23:43:51.486Z,98074.00
2018-09-04T23:46:32.590Z,98072.00
2018-09-04T23:49:14.341Z,98067.00
2018-09-04T23:51:54.668Z,98063.00
2018-09-04T23:54:34.214Z,98060.00
2018-09-04T23:57:15.283Z,98060.00
2018-09-04T23:59:54.649Z,98058.00
